sensor_id;sensor_type;location;lat;lon;timestamp;P1;durP1;ratioP1;P2;durP2;ratioP2
46777;SDS011;32536;47.128;8.746;2023-02-22T00:01:32;1.85;;;1.00;;
46777;SDS011;32536;47.128;8.746;2023-02-22T00:04:00;2.17;;;1.08;;
46777;SDS011;32536;47.128;8.746;2023-02-22T00:06:29;1.52;;;0.80;;
46777;SDS011;32536;47.128;8.746;2023-02-22T00:08:56;1.73;;;1.08;;
46777;SDS011;32536;47.128;8.746;2023-02-22T00:11:24;1.80;;;1.30;;
46777;SDS011;32536;47.128;8.746;2023-02-22T00:13:51;4.07;;;1.25;;
46777;SDS011;32536;47.128;8.746;2023-02-22T00:16:22;2.30;;;1.35;;
46777;SDS011;32536;47.128;8.746;2023-02-22T00:18:50;3.00;;;1.30;;
46777;SDS011;32536;47.128;8.746;2023-02-22T00:21:17;1.38;;;0.70;;
46777;SDS011;32536;47.128;8.746;2023-02-22T00:23:46;1.85;;;1.10;;
46777;SDS011;32536;47.128;8.746;2023-02-22T00:26:15;1.65;;;1.00;;
46777;SDS011;32536;47.128;8.746;2023-02-22T00:28:51;1.45;;;1.30;;
46777;SDS011;32536;47.128;8.746;2023-02-22T00:31:19;1.52;;;1.00;;
46777;SDS011;32536;47.128;8.746;2023-02-22T00:33:46;2.00;;;1.20;;
46777;SDS011;32536;47.128;8.746;2023-02-22T00:36:13;2.00;;;1.02;;
46777;SDS011;32536;47.128;8.746;2023-02-22T00:38:40;1.45;;;0.93;;
46777;SDS011;32536;47.128;8.746;2023-02-22T00:41:07;1.02;;;0.57;;
46777;SDS011;32536;47.128;8.746;2023-02-22T00:43:35;2.17;;;0.88;;
46777;SDS011;32536;47.128;8.746;2023-02-22T00:46:02;2.10;;;1.13;;
46777;SDS011;32536;47.128;8.746;2023-02-22T00:48:29;1.42;;;0.80;;
46777;SDS011;32536;47.128;8.746;2023-02-22T00:50:56;2.22;;;1.20;;
46777;SDS011;32536;47.128;8.746;2023-02-22T00:53:23;3.03;;;1.02;;
46777;SDS011;32536;47.128;8.746;2023-02-22T00:55:52;2.50;;;1.40;;
46777;SDS011;32536;47.128;8.746;2023-02-22T00:58:19;2.28;;;1.55;;
46777;SDS011;32536;47.128;8.746;2023-02-22T01:00:47;1.95;;;1.45;;
46777;SDS011;32536;47.128;8.746;2023-02-22T01:03:16;1.52;;;1.13;;
46777;SDS011;32536;47.128;8.746;2023-02-22T01:05:45;1.80;;;1.33;;
46777;SDS011;32536;47.128;8.746;2023-02-22T01:08:13;1.58;;;1.05;;
46777;SDS011;32536;47.128;8.746;2023-02-22T01:10:41;2.03;;;1.23;;
46777;SDS011;32536;47.128;8.746;2023-02-22T01:13:09;2.38;;;1.27;;
46777;SDS011;32536;47.128;8.746;2023-02-22T01:15:38;1.55;;;1.15;;
46777;SDS011;32536;47.128;8.746;2023-02-22T01:18:08;2.10;;;1.10;;
46777;SDS011;32536;47.128;8.746;2023-02-22T01:20:37;2.13;;;1.45;;
46777;SDS011;32536;47.128;8.746;2023-02-22T01:23:04;2.35;;;1.05;;
46777;SDS011;32536;47.128;8.746;2023-02-22T01:25:32;1.73;;;0.95;;
46777;SDS011;32536;47.128;8.746;2023-02-22T01:28:00;1.83;;;0.80;;
46777;SDS011;32536;47.128;8.746;2023-02-22T01:30:30;1.50;;;1.13;;
46777;SDS011;32536;47.128;8.746;2023-02-22T01:32:59;1.17;;;0.88;;
46777;SDS011;32536;47.128;8.746;2023-02-22T01:35:29;1.27;;;0.90;;
46777;SDS011;32536;47.128;8.746;2023-02-22T01:37:58;1.15;;;0.90;;
46777;SDS011;32536;47.128;8.746;2023-02-22T01:40:27;1.50;;;1.27;;
46777;SDS011;32536;47.128;8.746;2023-02-22T01:43:25;1.80;;;1.02;;
46777;SDS011;32536;47.128;8.746;2023-02-22T01:46:06;2.95;;;1.13;;
46777;SDS011;32536;47.128;8.746;2023-02-22T01:48:47;1.70;;;0.70;;
46777;SDS011;32536;47.128;8.746;2023-02-22T01:51:35;1.75;;;0.88;;
46777;SDS011;32536;47.128;8.746;2023-02-22T01:54:07;2.25;;;0.95;;
46777;SDS011;32536;47.128;8.746;2023-02-22T01:56:59;1.63;;;0.98;;
46777;SDS011;32536;47.128;8.746;2023-02-22T01:59:37;1.92;;;1.05;;
46777;SDS011;32536;47.128;8.746;2023-02-22T02:02:08;2.42;;;1.50;;
46777;SDS011;32536;47.128;8.746;2023-02-22T02:04:35;1.15;;;0.88;;
46777;SDS011;32536;47.128;8.746;2023-02-22T02:07:03;1.48;;;1.05;;
46777;SDS011;32536;47.128;8.746;2023-02-22T02:10:20;1.58;;;1.10;;
46777;SDS011;32536;47.128;8.746;2023-02-22T02:12:26;1.35;;;1.05;;
46777;SDS011;32536;47.128;8.746;2023-02-22T02:17:42;1.67;;;1.20;;
46777;SDS011;32536;47.128;8.746;2023-02-22T02:20:12;1.58;;;0.98;;
46777;SDS011;32536;47.128;8.746;2023-02-22T02:31:49;1.13;;;0.77;;
46777;SDS011;32536;47.128;8.746;2023-02-22T02:43:41;1.25;;;0.95;;
46777;SDS011;32536;47.128;8.746;2023-02-22T02:46:26;1.00;;;0.88;;
46777;SDS011;32536;47.128;8.746;2023-02-22T02:49:06;1.50;;;0.93;;
46777;SDS011;32536;47.128;8.746;2023-02-22T02:51:43;1.45;;;1.08;;
46777;SDS011;32536;47.128;8.746;2023-02-22T02:54:15;1.67;;;0.98;;
46777;SDS011;32536;47.128;8.746;2023-02-22T02:56:42;2.20;;;1.40;;
46777;SDS011;32536;47.128;8.746;2023-02-22T03:11:18;1.80;;;1.10;;
46777;SDS011;32536;47.128;8.746;2023-02-22T03:16:48;1.63;;;0.93;;
46777;SDS011;32536;47.128;8.746;2023-02-22T03:19:49;2.63;;;1.63;;
46777;SDS011;32536;47.128;8.746;2023-02-22T03:22:27;2.35;;;1.30;;
46777;SDS011;32536;47.128;8.746;2023-02-22T03:25:19;1.83;;;0.73;;
46777;SDS011;32536;47.128;8.746;2023-02-22T03:27:56;1.83;;;1.02;;
46777;SDS011;32536;47.128;8.746;2023-02-22T03:33:13;1.73;;;1.35;;
46777;SDS011;32536;47.128;8.746;2023-02-22T03:35:54;2.38;;;1.58;;
46777;SDS011;32536;47.128;8.746;2023-02-22T03:38:27;2.03;;;1.05;;
46777;SDS011;32536;47.128;8.746;2023-02-22T03:40:58;1.65;;;0.95;;
46777;SDS011;32536;47.128;8.746;2023-02-22T03:43:29;1.38;;;0.75;;
46777;SDS011;32536;47.128;8.746;2023-02-22T03:46:05;1.80;;;0.98;;
46777;SDS011;32536;47.128;8.746;2023-02-22T03:51:49;1.77;;;1.13;;
46777;SDS011;32536;47.128;8.746;2023-02-22T03:54:16;1.52;;;0.77;;
46777;SDS011;32536;47.128;8.746;2023-02-22T03:56:57;1.55;;;0.90;;
46777;SDS011;32536;47.128;8.746;2023-02-22T03:59:31;1.38;;;0.90;;
46777;SDS011;32536;47.128;8.746;2023-02-22T04:01:59;2.08;;;1.67;;
46777;SDS011;32536;47.128;8.746;2023-02-22T04:04:26;1.40;;;1.05;;
46777;SDS011;32536;47.128;8.746;2023-02-22T04:06:53;1.30;;;0.70;;
46777;SDS011;32536;47.128;8.746;2023-02-22T04:09:20;1.77;;;1.05;;
46777;SDS011;32536;47.128;8.746;2023-02-22T04:11:47;2.00;;;1.05;;
46777;SDS011;32536;47.128;8.746;2023-02-22T04:14:14;1.80;;;1.10;;
46777;SDS011;32536;47.128;8.746;2023-02-22T04:16:41;1.20;;;0.68;;
46777;SDS011;32536;47.128;8.746;2023-02-22T04:19:08;1.52;;;1.00;;
46777;SDS011;32536;47.128;8.746;2023-02-22T04:21:35;2.03;;;1.40;;
46777;SDS011;32536;47.128;8.746;2023-02-22T04:24:01;1.95;;;1.20;;
46777;SDS011;32536;47.128;8.746;2023-02-22T04:26:28;1.40;;;1.13;;
46777;SDS011;32536;47.128;8.746;2023-02-22T04:28:55;1.95;;;1.50;;
46777;SDS011;32536;47.128;8.746;2023-02-22T04:31:22;1.38;;;0.80;;
46777;SDS011;32536;47.128;8.746;2023-02-22T04:33:49;1.00;;;0.75;;
46777;SDS011;32536;47.128;8.746;2023-02-22T04:36:15;1.33;;;1.00;;
46777;SDS011;32536;47.128;8.746;2023-02-22T04:38:42;1.10;;;1.00;;
46777;SDS011;32536;47.128;8.746;2023-02-22T04:41:09;1.75;;;1.25;;
46777;SDS011;32536;47.128;8.746;2023-02-22T04:43:36;2.45;;;1.73;;
46777;SDS011;32536;47.128;8.746;2023-02-22T04:46:03;1.67;;;1.20;;
46777;SDS011;32536;47.128;8.746;2023-02-22T04:48:30;1.77;;;1.10;;
46777;SDS011;32536;47.128;8.746;2023-02-22T04:50:57;1.58;;;1.13;;
46777;SDS011;32536;47.128;8.746;2023-02-22T04:53:23;2.15;;;1.25;;
46777;SDS011;32536;47.128;8.746;2023-02-22T04:55:50;1.05;;;0.85;;
46777;SDS011;32536;47.128;8.746;2023-02-22T04:58:17;1.52;;;1.00;;
46777;SDS011;32536;47.128;8.746;2023-02-22T05:00:44;1.45;;;1.13;;
46777;SDS011;32536;47.128;8.746;2023-02-22T05:03:11;1.35;;;1.00;;
46777;SDS011;32536;47.128;8.746;2023-02-22T05:05:37;2.15;;;1.00;;
46777;SDS011;32536;47.128;8.746;2023-02-22T05:08:04;1.80;;;1.02;;
46777;SDS011;32536;47.128;8.746;2023-02-22T05:10:31;2.13;;;1.40;;
46777;SDS011;32536;47.128;8.746;2023-02-22T05:12:57;1.88;;;1.02;;
46777;SDS011;32536;47.128;8.746;2023-02-22T05:15:24;2.45;;;1.25;;
46777;SDS011;32536;47.128;8.746;2023-02-22T05:17:51;2.47;;;1.10;;
46777;SDS011;32536;47.128;8.746;2023-02-22T05:22:58;2.13;;;1.17;;
46777;SDS011;32536;47.128;8.746;2023-02-22T05:25:27;1.70;;;1.00;;
46777;SDS011;32536;47.128;8.746;2023-02-22T05:27:55;1.50;;;1.23;;
46777;SDS011;32536;47.128;8.746;2023-02-22T05:30:29;1.58;;;0.85;;
46777;SDS011;32536;47.128;8.746;2023-02-22T05:32:58;2.38;;;1.33;;
46777;SDS011;32536;47.128;8.746;2023-02-22T05:35:26;2.03;;;1.05;;
46777;SDS011;32536;47.128;8.746;2023-02-22T05:37:55;2.22;;;1.40;;
46777;SDS011;32536;47.128;8.746;2023-02-22T05:40:23;2.03;;;1.30;;
46777;SDS011;32536;47.128;8.746;2023-02-22T05:42:52;2.20;;;1.33;;
46777;SDS011;32536;47.128;8.746;2023-02-22T05:45:20;2.30;;;1.30;;
46777;SDS011;32536;47.128;8.746;2023-02-22T05:47:51;1.77;;;1.05;;
46777;SDS011;32536;47.128;8.746;2023-02-22T05:50:19;1.92;;;1.10;;
46777;SDS011;32536;47.128;8.746;2023-02-22T05:52:47;2.03;;;1.10;;
46777;SDS011;32536;47.128;8.746;2023-02-22T05:55:14;1.80;;;1.08;;
46777;SDS011;32536;47.128;8.746;2023-02-22T06:00:35;2.13;;;1.27;;
46777;SDS011;32536;47.128;8.746;2023-02-22T06:03:03;1.25;;;0.90;;
46777;SDS011;32536;47.128;8.746;2023-02-22T06:05:32;1.88;;;1.63;;
46777;SDS011;32536;47.128;8.746;2023-02-22T06:08:00;2.10;;;1.00;;
46777;SDS011;32536;47.128;8.746;2023-02-22T06:10:28;3.03;;;1.65;;
46777;SDS011;32536;47.128;8.746;2023-02-22T06:12:55;2.92;;;1.30;;
46777;SDS011;32536;47.128;8.746;2023-02-22T06:15:23;3.25;;;1.30;;
46777;SDS011;32536;47.128;8.746;2023-02-22T06:17:52;1.67;;;0.80;;
46777;SDS011;32536;47.128;8.746;2023-02-22T06:20:21;1.98;;;1.23;;
46777;SDS011;32536;47.128;8.746;2023-02-22T06:22:50;1.85;;;1.35;;
46777;SDS011;32536;47.128;8.746;2023-02-22T06:25:20;1.63;;;1.00;;
46777;SDS011;32536;47.128;8.746;2023-02-22T06:27:53;2.30;;;1.38;;
46777;SDS011;32536;47.128;8.746;2023-02-22T06:30:21;1.90;;;1.13;;
46777;SDS011;32536;47.128;8.746;2023-02-22T06:32:50;2.58;;;1.40;;
46777;SDS011;32536;47.128;8.746;2023-02-22T06:35:17;1.65;;;1.17;;
46777;SDS011;32536;47.128;8.746;2023-02-22T06:37:44;3.80;;;1.05;;
46777;SDS011;32536;47.128;8.746;2023-02-22T06:40:10;2.35;;;0.93;;
46777;SDS011;32536;47.128;8.746;2023-02-22T06:42:38;3.25;;;1.95;;
46777;SDS011;32536;47.128;8.746;2023-02-22T06:45:05;2.65;;;1.35;;
46777;SDS011;32536;47.128;8.746;2023-02-22T06:47:36;1.88;;;1.08;;
46777;SDS011;32536;47.128;8.746;2023-02-22T06:50:05;2.85;;;1.80;;
46777;SDS011;32536;47.128;8.746;2023-02-22T06:52:43;1.85;;;1.10;;
46777;SDS011;32536;47.128;8.746;2023-02-22T06:55:10;2.10;;;1.20;;
46777;SDS011;32536;47.128;8.746;2023-02-22T07:00:37;2.92;;;1.65;;
46777;SDS011;32536;47.128;8.746;2023-02-22T07:03:04;2.05;;;1.00;;
46777;SDS011;32536;47.128;8.746;2023-02-22T07:05:30;2.00;;;1.10;;
46777;SDS011;32536;47.128;8.746;2023-02-22T07:08:04;1.60;;;0.95;;
46777;SDS011;32536;47.128;8.746;2023-02-22T07:10:33;2.80;;;1.35;;
46777;SDS011;32536;47.128;8.746;2023-02-22T07:13:02;1.77;;;1.10;;
46777;SDS011;32536;47.128;8.746;2023-02-22T07:15:32;1.77;;;0.77;;
46777;SDS011;32536;47.128;8.746;2023-02-22T07:18:00;2.03;;;0.90;;
46777;SDS011;32536;47.128;8.746;2023-02-22T07:20:28;3.40;;;1.05;;
46777;SDS011;32536;47.128;8.746;2023-02-22T07:22:56;3.30;;;1.52;;
46777;SDS011;32536;47.128;8.746;2023-02-22T07:25:23;2.60;;;1.30;;
46777;SDS011;32536;47.128;8.746;2023-02-22T07:27:50;1.75;;;0.90;;
46777;SDS011;32536;47.128;8.746;2023-02-22T07:30:23;2.08;;;1.00;;
46777;SDS011;32536;47.128;8.746;2023-02-22T07:32:59;1.88;;;1.50;;
46777;SDS011;32536;47.128;8.746;2023-02-22T07:35:32;1.15;;;0.80;;
46777;SDS011;32536;47.128;8.746;2023-02-22T07:38:11;1.85;;;1.15;;
46777;SDS011;32536;47.128;8.746;2023-02-22T07:40:40;2.70;;;1.45;;
46777;SDS011;32536;47.128;8.746;2023-02-22T07:43:21;4.00;;;1.30;;
46777;SDS011;32536;47.128;8.746;2023-02-22T07:45:53;2.65;;;1.17;;
46777;SDS011;32536;47.128;8.746;2023-02-22T07:48:24;2.10;;;1.20;;
46777;SDS011;32536;47.128;8.746;2023-02-22T07:50:53;2.08;;;1.15;;
46777;SDS011;32536;47.128;8.746;2023-02-22T07:55:49;2.45;;;1.30;;
46777;SDS011;32536;47.128;8.746;2023-02-22T07:58:17;3.50;;;1.48;;
46777;SDS011;32536;47.128;8.746;2023-02-22T08:00:47;2.50;;;1.23;;
46777;SDS011;32536;47.128;8.746;2023-02-22T08:03:15;2.53;;;1.25;;
46777;SDS011;32536;47.128;8.746;2023-02-22T08:05:44;2.13;;;1.08;;
46777;SDS011;32536;47.128;8.746;2023-02-22T08:08:15;1.83;;;1.00;;
46777;SDS011;32536;47.128;8.746;2023-02-22T08:10:43;1.77;;;1.15;;
46777;SDS011;32536;47.128;8.746;2023-02-22T08:13:10;1.73;;;1.13;;
46777;SDS011;32536;47.128;8.746;2023-02-22T08:15:38;1.95;;;1.75;;
46777;SDS011;32536;47.128;8.746;2023-02-22T08:18:08;2.95;;;0.90;;
46777;SDS011;32536;47.128;8.746;2023-02-22T08:20:40;2.45;;;1.45;;
46777;SDS011;32536;47.128;8.746;2023-02-22T08:23:10;1.92;;;0.73;;
46777;SDS011;32536;47.128;8.746;2023-02-22T08:25:40;2.15;;;1.10;;
46777;SDS011;32536;47.128;8.746;2023-02-22T08:28:11;2.13;;;1.02;;
46777;SDS011;32536;47.128;8.746;2023-02-22T08:30:40;2.45;;;1.35;;
46777;SDS011;32536;47.128;8.746;2023-02-22T08:33:08;1.70;;;1.02;;
46777;SDS011;32536;47.128;8.746;2023-02-22T08:35:38;3.30;;;1.52;;
46777;SDS011;32536;47.128;8.746;2023-02-22T08:38:07;4.03;;;1.65;;
46777;SDS011;32536;47.128;8.746;2023-02-22T08:40:42;3.60;;;1.77;;
46777;SDS011;32536;47.128;8.746;2023-02-22T08:43:08;3.28;;;1.42;;
46777;SDS011;32536;47.128;8.746;2023-02-22T08:45:35;3.35;;;1.52;;
46777;SDS011;32536;47.128;8.746;2023-02-22T08:48:02;3.80;;;1.63;;
46777;SDS011;32536;47.128;8.746;2023-02-22T08:50:30;2.22;;;1.27;;
46777;SDS011;32536;47.128;8.746;2023-02-22T08:52:58;1.67;;;1.13;;
46777;SDS011;32536;47.128;8.746;2023-02-22T08:55:28;1.92;;;1.00;;
46777;SDS011;32536;47.128;8.746;2023-02-22T08:58:17;1.92;;;1.05;;
46777;SDS011;32536;47.128;8.746;2023-02-22T09:00:44;2.28;;;1.33;;
46777;SDS011;32536;47.128;8.746;2023-02-22T09:03:11;2.45;;;1.45;;
46777;SDS011;32536;47.128;8.746;2023-02-22T09:05:40;1.55;;;1.15;;
46777;SDS011;32536;47.128;8.746;2023-02-22T09:08:08;2.38;;;1.15;;
46777;SDS011;32536;47.128;8.746;2023-02-22T09:10:35;1.65;;;0.88;;
46777;SDS011;32536;47.128;8.746;2023-02-22T09:13:02;2.47;;;1.02;;
46777;SDS011;32536;47.128;8.746;2023-02-22T09:15:29;1.80;;;1.10;;
46777;SDS011;32536;47.128;8.746;2023-02-22T09:18:00;1.50;;;0.82;;
46777;SDS011;32536;47.128;8.746;2023-02-22T09:20:27;3.85;;;1.48;;
46777;SDS011;32536;47.128;8.746;2023-02-22T09:22:54;1.85;;;1.08;;
46777;SDS011;32536;47.128;8.746;2023-02-22T09:25:22;2.45;;;0.82;;
46777;SDS011;32536;47.128;8.746;2023-02-22T09:27:49;1.55;;;0.80;;
46777;SDS011;32536;47.128;8.746;2023-02-22T09:32:52;3.42;;;1.10;;
46777;SDS011;32536;47.128;8.746;2023-02-22T09:35:21;2.08;;;0.95;;
46777;SDS011;32536;47.128;8.746;2023-02-22T09:37:58;2.17;;;1.13;;
46777;SDS011;32536;47.128;8.746;2023-02-22T09:40:27;2.20;;;1.20;;
46777;SDS011;32536;47.128;8.746;2023-02-22T09:46:02;2.05;;;1.05;;
46777;SDS011;32536;47.128;8.746;2023-02-22T09:54:37;2.45;;;1.00;;
46777;SDS011;32536;47.128;8.746;2023-02-22T10:00:23;2.10;;;1.17;;
46777;SDS011;32536;47.128;8.746;2023-02-22T10:03:19;2.42;;;1.08;;
46777;SDS011;32536;47.128;8.746;2023-02-22T10:06:08;3.63;;;1.17;;
46777;SDS011;32536;47.128;8.746;2023-02-22T10:08:37;3.58;;;1.67;;
46777;SDS011;32536;47.128;8.746;2023-02-22T10:11:08;3.40;;;1.50;;
46777;SDS011;32536;47.128;8.746;2023-02-22T10:25:13;3.47;;;1.10;;
46777;SDS011;32536;47.128;8.746;2023-02-22T10:27:52;3.63;;;1.83;;
46777;SDS011;32536;47.128;8.746;2023-02-22T10:30:46;3.38;;;1.70;;
46777;SDS011;32536;47.128;8.746;2023-02-22T10:33:30;3.60;;;1.60;;
46777;SDS011;32536;47.128;8.746;2023-02-22T10:36:09;5.35;;;1.98;;
46777;SDS011;32536;47.128;8.746;2023-02-22T10:38:46;4.30;;;1.95;;
46777;SDS011;32536;47.128;8.746;2023-02-22T10:41:43;7.60;;;3.17;;
46777;SDS011;32536;47.128;8.746;2023-02-22T10:44:15;3.50;;;1.42;;
46777;SDS011;32536;47.128;8.746;2023-02-22T10:46:42;3.47;;;1.67;;
46777;SDS011;32536;47.128;8.746;2023-02-22T10:49:11;5.40;;;1.90;;
46777;SDS011;32536;47.128;8.746;2023-02-22T10:51:47;4.28;;;2.03;;
46777;SDS011;32536;47.128;8.746;2023-02-22T10:54:33;3.72;;;1.70;;
46777;SDS011;32536;47.128;8.746;2023-02-22T10:57:06;4.55;;;2.25;;
46777;SDS011;32536;47.128;8.746;2023-02-22T10:59:35;4.57;;;1.95;;
46777;SDS011;32536;47.128;8.746;2023-02-22T11:04:45;3.47;;;1.52;;
46777;SDS011;32536;47.128;8.746;2023-02-22T11:07:28;3.45;;;1.58;;
46777;SDS011;32536;47.128;8.746;2023-02-22T11:09:59;4.45;;;1.90;;
46777;SDS011;32536;47.128;8.746;2023-02-22T11:17:53;4.13;;;1.33;;
46777;SDS011;32536;47.128;8.746;2023-02-22T11:20:24;3.97;;;1.95;;
46777;SDS011;32536;47.128;8.746;2023-02-22T11:22:54;3.70;;;1.63;;
46777;SDS011;32536;47.128;8.746;2023-02-22T11:25:35;3.58;;;1.55;;
46777;SDS011;32536;47.128;8.746;2023-02-22T11:28:26;4.28;;;1.65;;
46777;SDS011;32536;47.128;8.746;2023-02-22T11:31:07;3.53;;;1.38;;
46777;SDS011;32536;47.128;8.746;2023-02-22T11:34:00;3.92;;;1.75;;
46777;SDS011;32536;47.128;8.746;2023-02-22T11:42:12;4.65;;;2.03;;
46777;SDS011;32536;47.128;8.746;2023-02-22T11:44:47;4.78;;;1.98;;
46777;SDS011;32536;47.128;8.746;2023-02-22T11:50:00;5.13;;;2.70;;
46777;SDS011;32536;47.128;8.746;2023-02-22T11:52:30;5.43;;;2.65;;
46777;SDS011;32536;47.128;8.746;2023-02-22T11:55:11;4.60;;;2.22;;
46777;SDS011;32536;47.128;8.746;2023-02-22T12:21:59;10.63;;;3.97;;
46777;SDS011;32536;47.128;8.746;2023-02-22T12:24:37;7.85;;;3.67;;
46777;SDS011;32536;47.128;8.746;2023-02-22T12:27:19;10.00;;;5.45;;
46777;SDS011;32536;47.128;8.746;2023-02-22T12:32:52;8.57;;;4.72;;
46777;SDS011;32536;47.128;8.746;2023-02-22T12:35:25;9.93;;;4.70;;
46777;SDS011;32536;47.128;8.746;2023-02-22T12:38:14;8.25;;;3.78;;
46777;SDS011;32536;47.128;8.746;2023-02-22T12:41:21;10.45;;;4.90;;
46777;SDS011;32536;47.128;8.746;2023-02-22T12:44:21;7.55;;;4.03;;
46777;SDS011;32536;47.128;8.746;2023-02-22T12:46:58;9.55;;;4.72;;
46777;SDS011;32536;47.128;8.746;2023-02-22T13:03:42;12.77;;;6.13;;
46777;SDS011;32536;47.128;8.746;2023-02-22T13:06:16;9.77;;;5.13;;
46777;SDS011;32536;47.128;8.746;2023-02-22T13:15:39;9.40;;;4.60;;
46777;SDS011;32536;47.128;8.746;2023-02-22T13:18:44;9.23;;;4.55;;
46777;SDS011;32536;47.128;8.746;2023-02-22T13:27:08;12.63;;;6.50;;
46777;SDS011;32536;47.128;8.746;2023-02-22T13:30:03;14.70;;;6.80;;
46777;SDS011;32536;47.128;8.746;2023-02-22T13:41:55;9.95;;;5.55;;
46777;SDS011;32536;47.128;8.746;2023-02-22T13:44:58;10.85;;;5.68;;
46777;SDS011;32536;47.128;8.746;2023-02-22T13:53:23;11.82;;;6.43;;
46777;SDS011;32536;47.128;8.746;2023-02-22T13:55:54;11.20;;;6.10;;
46777;SDS011;32536;47.128;8.746;2023-02-22T14:04:31;8.82;;;4.00;;
46777;SDS011;32536;47.128;8.746;2023-02-22T14:07:49;10.13;;;4.85;;
46777;SDS011;32536;47.128;8.746;2023-02-22T14:09:51;10.27;;;4.65;;
46777;SDS011;32536;47.128;8.746;2023-02-22T14:17:42;11.10;;;5.60;;
46777;SDS011;32536;47.128;8.746;2023-02-22T14:23:36;10.35;;;5.15;;
46777;SDS011;32536;47.128;8.746;2023-02-22T14:26:15;7.47;;;3.30;;
46777;SDS011;32536;47.128;8.746;2023-02-22T14:28:52;7.25;;;3.65;;
46777;SDS011;32536;47.128;8.746;2023-02-22T14:31:20;9.60;;;4.90;;
46777;SDS011;32536;47.128;8.746;2023-02-22T14:39:45;11.10;;;5.43;;
46777;SDS011;32536;47.128;8.746;2023-02-22T14:42:18;8.73;;;5.07;;
46777;SDS011;32536;47.128;8.746;2023-02-22T14:44:56;8.88;;;4.70;;
46777;SDS011;32536;47.128;8.746;2023-02-22T14:47:54;6.25;;;3.22;;
46777;SDS011;32536;47.128;8.746;2023-02-22T14:50:52;7.95;;;3.95;;
46777;SDS011;32536;47.128;8.746;2023-02-22T14:56:13;10.25;;;5.88;;
46777;SDS011;32536;47.128;8.746;2023-02-22T14:58:47;10.10;;;4.88;;
46777;SDS011;32536;47.128;8.746;2023-02-22T15:04:20;9.35;;;4.93;;
46777;SDS011;32536;47.128;8.746;2023-02-22T15:06:56;10.20;;;4.32;;
46777;SDS011;32536;47.128;8.746;2023-02-22T15:09:27;7.75;;;3.85;;
46777;SDS011;32536;47.128;8.746;2023-02-22T15:14:28;5.40;;;2.75;;
46777;SDS011;32536;47.128;8.746;2023-02-22T15:17:04;4.68;;;2.15;;
46777;SDS011;32536;47.128;8.746;2023-02-22T15:19:39;6.85;;;3.65;;
46777;SDS011;32536;47.128;8.746;2023-02-22T15:22:17;8.55;;;4.05;;
46777;SDS011;32536;47.128;8.746;2023-02-22T15:24:54;7.28;;;3.78;;
46777;SDS011;32536;47.128;8.746;2023-02-22T15:27:29;7.28;;;3.20;;
46777;SDS011;32536;47.128;8.746;2023-02-22T15:30:05;4.55;;;2.00;;
46777;SDS011;32536;47.128;8.746;2023-02-22T15:32:53;6.07;;;2.05;;
46777;SDS011;32536;47.128;8.746;2023-02-22T15:35:25;5.88;;;2.97;;
46777;SDS011;32536;47.128;8.746;2023-02-22T15:40:24;7.15;;;3.28;;
46777;SDS011;32536;47.128;8.746;2023-02-22T15:42:58;5.15;;;2.95;;
46777;SDS011;32536;47.128;8.746;2023-02-22T15:45:33;7.68;;;4.03;;
46777;SDS011;32536;47.128;8.746;2023-02-22T15:48:10;7.28;;;3.92;;
46777;SDS011;32536;47.128;8.746;2023-02-22T15:50:39;7.68;;;3.75;;
46777;SDS011;32536;47.128;8.746;2023-02-22T15:53:30;8.35;;;4.22;;
46777;SDS011;32536;47.128;8.746;2023-02-22T15:56:25;11.10;;;4.07;;
46777;SDS011;32536;47.128;8.746;2023-02-22T15:58:59;5.80;;;2.45;;
46777;SDS011;32536;47.128;8.746;2023-02-22T16:01:42;5.05;;;2.60;;
46777;SDS011;32536;47.128;8.746;2023-02-22T16:04:19;5.75;;;2.58;;
46777;SDS011;32536;47.128;8.746;2023-02-22T16:06:48;6.90;;;3.17;;
46777;SDS011;32536;47.128;8.746;2023-02-22T16:09:20;8.07;;;4.82;;
46777;SDS011;32536;47.128;8.746;2023-02-22T16:12:08;8.00;;;4.07;;
46777;SDS011;32536;47.128;8.746;2023-02-22T16:14:55;7.30;;;2.97;;
46777;SDS011;32536;47.128;8.746;2023-02-22T16:17:25;7.65;;;4.22;;
46777;SDS011;32536;47.128;8.746;2023-02-22T16:22:42;6.90;;;3.72;;
46777;SDS011;32536;47.128;8.746;2023-02-22T16:27:44;8.20;;;3.92;;
46777;SDS011;32536;47.128;8.746;2023-02-22T16:32:49;7.82;;;3.67;;
46777;SDS011;32536;47.128;8.746;2023-02-22T16:35:18;6.45;;;3.33;;
46777;SDS011;32536;47.128;8.746;2023-02-22T16:37:53;7.85;;;3.97;;
46777;SDS011;32536;47.128;8.746;2023-02-22T16:40:44;5.78;;;2.80;;
46777;SDS011;32536;47.128;8.746;2023-02-22T16:43:20;5.80;;;2.53;;
46777;SDS011;32536;47.128;8.746;2023-02-22T16:45:50;7.07;;;3.50;;
46777;SDS011;32536;47.128;8.746;2023-02-22T16:48:20;5.50;;;2.38;;
46777;SDS011;32536;47.128;8.746;2023-02-22T16:50:54;9.07;;;4.88;;
46777;SDS011;32536;47.128;8.746;2023-02-22T16:53:25;7.47;;;3.33;;
46777;SDS011;32536;47.128;8.746;2023-02-22T16:55:56;8.98;;;3.72;;
46777;SDS011;32536;47.128;8.746;2023-02-22T16:58:48;5.90;;;2.78;;
46777;SDS011;32536;47.128;8.746;2023-02-22T17:01:17;4.97;;;2.50;;
46777;SDS011;32536;47.128;8.746;2023-02-22T17:03:47;5.15;;;2.15;;
46777;SDS011;32536;47.128;8.746;2023-02-22T17:06:15;4.43;;;2.03;;
46777;SDS011;32536;47.128;8.746;2023-02-22T17:08:42;7.15;;;3.03;;
46777;SDS011;32536;47.128;8.746;2023-02-22T17:11:10;4.45;;;1.95;;
46777;SDS011;32536;47.128;8.746;2023-02-22T17:13:39;5.18;;;2.17;;
46777;SDS011;32536;47.128;8.746;2023-02-22T17:16:05;4.57;;;2.38;;
46777;SDS011;32536;47.128;8.746;2023-02-22T17:18:35;5.32;;;2.28;;
46777;SDS011;32536;47.128;8.746;2023-02-22T17:21:03;4.32;;;1.98;;
46777;SDS011;32536;47.128;8.746;2023-02-22T17:23:30;6.75;;;2.53;;
46777;SDS011;32536;47.128;8.746;2023-02-22T17:25:58;6.75;;;2.75;;
46777;SDS011;32536;47.128;8.746;2023-02-22T17:28:28;5.32;;;2.72;;
46777;SDS011;32536;47.128;8.746;2023-02-22T17:30:57;4.90;;;2.35;;
46777;SDS011;32536;47.128;8.746;2023-02-22T17:33:27;6.88;;;2.72;;
46777;SDS011;32536;47.128;8.746;2023-02-22T17:35:57;6.72;;;3.03;;
46777;SDS011;32536;47.128;8.746;2023-02-22T17:38:27;4.60;;;2.03;;
46777;SDS011;32536;47.128;8.746;2023-02-22T17:40:55;6.43;;;3.47;;
46777;SDS011;32536;47.128;8.746;2023-02-22T17:43:24;5.20;;;2.17;;
46777;SDS011;32536;47.128;8.746;2023-02-22T17:45:52;4.80;;;2.28;;
46777;SDS011;32536;47.128;8.746;2023-02-22T17:48:19;5.85;;;2.30;;
46777;SDS011;32536;47.128;8.746;2023-02-22T17:50:46;5.38;;;2.47;;
46777;SDS011;32536;47.128;8.746;2023-02-22T17:53:16;5.32;;;2.67;;
46777;SDS011;32536;47.128;8.746;2023-02-22T17:55:47;5.75;;;2.90;;
46777;SDS011;32536;47.128;8.746;2023-02-22T17:58:14;6.15;;;2.90;;
46777;SDS011;32536;47.128;8.746;2023-02-22T18:01:28;7.10;;;3.17;;
46777;SDS011;32536;47.128;8.746;2023-02-22T18:03:57;7.43;;;2.92;;
46777;SDS011;32536;47.128;8.746;2023-02-22T18:06:27;8.13;;;3.55;;
46777;SDS011;32536;47.128;8.746;2023-02-22T18:08:58;7.40;;;3.88;;
46777;SDS011;32536;47.128;8.746;2023-02-22T18:11:26;7.63;;;3.45;;
46777;SDS011;32536;47.128;8.746;2023-02-22T18:13:57;7.88;;;3.65;;
46777;SDS011;32536;47.128;8.746;2023-02-22T18:16:24;8.43;;;4.18;;
46777;SDS011;32536;47.128;8.746;2023-02-22T18:18:51;8.98;;;4.57;;
46777;SDS011;32536;47.128;8.746;2023-02-22T18:21:19;9.75;;;4.78;;
46777;SDS011;32536;47.128;8.746;2023-02-22T18:23:47;8.80;;;3.67;;
46777;SDS011;32536;47.128;8.746;2023-02-22T18:26:14;7.43;;;3.25;;
46777;SDS011;32536;47.128;8.746;2023-02-22T18:28:44;5.20;;;2.55;;
46777;SDS011;32536;47.128;8.746;2023-02-22T18:31:14;5.93;;;2.33;;
46777;SDS011;32536;47.128;8.746;2023-02-22T18:33:44;5.60;;;2.75;;
46777;SDS011;32536;47.128;8.746;2023-02-22T18:36:13;5.30;;;2.53;;
46777;SDS011;32536;47.128;8.746;2023-02-22T18:38:41;7.57;;;2.95;;
46777;SDS011;32536;47.128;8.746;2023-02-22T18:41:10;7.70;;;3.80;;
46777;SDS011;32536;47.128;8.746;2023-02-22T18:43:42;6.30;;;2.97;;